createdAt,value
2022-09-26T00:01:22.123Z,25.53
2022-09-26T00:03:51.295Z,27.83
2022-09-26T00:06:20.669Z,25.07
2022-09-26T00:08:47.849Z,22.93
2022-09-26T00:11:17.149Z,29.20
2022-09-26T00:13:46.175Z,26.53
2022-09-26T00:16:13.075Z,25.00
2022-09-26T00:18:40.043Z,25.40
2022-09-26T00:21:14.001Z,25.03
2022-09-26T00:23:43.452Z,24.73
2022-09-26T00:26:10.528Z,22.87
2022-09-26T00:28:37.331Z,25.37
2022-09-26T00:31:12.094Z,25.53
2022-09-26T00:33:43.851Z,25.30
2022-09-26T00:36:10.786Z,26.60
2022-09-26T00:38:37.597Z,22.80
2022-09-26T00:41:04.575Z,24.47
2022-09-26T00:43:51.977Z,25.60
2022-09-26T00:46:44.362Z,22.60
2022-09-26T00:49:25.521Z,25.37
2022-09-26T00:52:14.271Z,25.20
2022-09-26T00:54:42.209Z,24.17
2022-09-26T00:57:12.316Z,23.97
2022-09-26T00:59:42.019Z,22.80
2022-09-26T01:02:10.911Z,24.00
2022-09-26T01:04:38.410Z,24.43
2022-09-26T01:07:07.584Z,22.97
2022-09-26T01:09:34.312Z,29.00
2022-09-26T01:12:01.390Z,24.93
2022-09-26T01:14:28.291Z,25.37
2022-09-26T01:17:02.182Z,26.67
2022-09-26T01:19:50.529Z,23.60
2022-09-26T01:22:54.908Z,25.40
2022-09-26T01:26:19.408Z,28.13
2022-09-26T01:29:10.530Z,26.43
2022-09-26T01:32:28.574Z,27.37
2022-09-26T01:35:32.072Z,27.53
2022-09-26T01:38:11.630Z,25.27
2022-09-26T01:41:22.891Z,26.70
2022-09-26T01:43:59.277Z,26.03
2022-09-26T01:46:32.402Z,26.10
2022-09-26T01:49:10.863Z,27.27
2022-09-26T01:51:40.002Z,25.07
2022-09-26T01:54:10.137Z,31.57
2022-09-26T01:56:41.035Z,25.50
2022-09-26T01:59:17.064Z,27.07
2022-09-26T02:01:43.891Z,28.73
2022-09-26T02:04:32.831Z,31.17
2022-09-26T02:07:13.957Z,25.83
2022-09-26T02:09:50.867Z,25.33
2022-09-26T02:12:32.865Z,27.73
2022-09-26T02:15:01.403Z,25.50
2022-09-26T02:17:31.275Z,29.33
2022-09-26T02:20:22.034Z,28.20
2022-09-26T02:22:48.757Z,25.30
2022-09-26T02:25:17.933Z,24.67
2022-09-26T02:27:44.681Z,26.23
2022-09-26T02:30:13.954Z,29.07
2022-09-26T02:32:40.647Z,28.30
2022-09-26T02:35:26.282Z,25.43
2022-09-26T02:37:52.964Z,25.30
2022-09-26T02:40:23.217Z,26.80
2022-09-26T02:43:18.878Z,24.33
2022-09-26T02:46:13.205Z,27.47
2022-09-26T02:49:06.816Z,26.97
2022-09-26T02:51:42.529Z,24.10
2022-09-26T02:54:22.965Z,25.23
2022-09-26T02:56:49.641Z,26.90
2022-09-26T02:59:23.597Z,26.63
2022-09-26T03:01:50.305Z,27.40
2022-09-26T03:04:43.978Z,26.90
2022-09-26T03:07:14.057Z,25.03
2022-09-26T03:09:40.824Z,24.47
2022-09-26T03:12:10.475Z,28.77
2022-09-26T03:14:38.176Z,24.33
2022-09-26T03:17:06.942Z,23.47
2022-09-26T03:19:53.374Z,24.57
2022-09-26T03:22:20.078Z,24.13
2022-09-26T03:24:46.834Z,26.17
2022-09-26T03:27:16.078Z,26.80
2022-09-26T03:29:44.933Z,28.23
2022-09-26T03:32:11.749Z,24.37
2022-09-26T03:34:39.938Z,27.87
2022-09-26T03:37:06.859Z,26.50
2022-09-26T03:39:33.552Z,25.90
2022-09-26T03:42:00.328Z,30.73
2022-09-26T03:44:27.034Z,26.73
2022-09-26T03:46:56.568Z,25.47
2022-09-26T03:49:23.271Z,23.20
2022-09-26T03:51:50.092Z,26.03
2022-09-26T03:54:16.808Z,26.27
2022-09-26T03:56:43.498Z,28.13
2022-09-26T03:59:10.184Z,26.97
2022-09-26T04:01:36.869Z,26.10
2022-09-26T04:04:03.624Z,28.23
2022-09-26T04:06:32.947Z,33.37
2022-09-26T04:08:59.693Z,49.90
2022-09-26T04:11:30.859Z,35.77
2022-09-26T04:13:57.593Z,31.50
2022-09-26T04:16:24.652Z,24.57
2022-09-26T04:18:56.695Z,24.73
2022-09-26T04:21:31.189Z,26.20
2022-09-26T04:23:58.126Z,28.07
2022-09-26T04:26:27.174Z,27.27
2022-09-26T04:28:55.776Z,25.63
2022-09-26T04:31:23.524Z,27.50
2022-09-26T04:33:50.656Z,24.33
2022-09-26T04:36:17.567Z,27.30
2022-09-26T04:38:46.880Z,26.57
2022-09-26T04:41:17.715Z,27.03
2022-09-26T04:43:46.607Z,27.80
2022-09-26T04:46:25.862Z,28.33
2022-09-26T04:48:57.396Z,31.53
2022-09-26T04:51:25.216Z,25.03
2022-09-26T04:53:54.487Z,28.07
2022-09-26T04:56:22.010Z,28.87
2022-09-26T04:58:48.748Z,24.97
2022-09-26T05:01:17.163Z,29.27
2022-09-26T05:03:44.299Z,30.70
2022-09-26T05:06:11.627Z,28.70
2022-09-26T05:08:39.582Z,26.30
2022-09-26T05:11:09.189Z,26.77
2022-09-26T05:13:37.252Z,31.47
2022-09-26T05:16:04.067Z,28.43
2022-09-26T05:18:33.885Z,32.57
2022-09-26T05:21:02.309Z,24.20
2022-09-26T05:23:47.487Z,25.47
2022-09-26T05:26:36.514Z,24.50
2022-09-26T05:29:08.388Z,26.30
2022-09-26T05:31:37.933Z,32.60
2022-09-26T05:34:13.102Z,27.30
2022-09-26T05:36:43.101Z,27.73
2022-09-26T05:39:30.879Z,29.97
2022-09-26T05:41:58.199Z,29.47
2022-09-26T05:44:24.988Z,29.43
2022-09-26T05:46:51.954Z,28.33
2022-09-26T05:49:18.770Z,29.87
2022-09-26T05:51:46.608Z,26.00
2022-09-26T05:54:13.621Z,25.83
2022-09-26T05:56:40.364Z,25.63
2022-09-26T05:59:07.158Z,28.33
2022-09-26T06:01:34.097Z,31.63
2022-09-26T06:04:03.394Z,26.77
2022-09-26T06:06:30.456Z,25.97
2022-09-26T06:08:57.173Z,29.10
2022-09-26T06:11:30.673Z,31.40
2022-09-26T06:14:00.588Z,25.87
2022-09-26T06:16:28.027Z,30.13
2022-09-26T06:18:55.918Z,27.67
2022-09-26T06:21:23.232Z,31.10
2022-09-26T06:23:49.958Z,29.73
2022-09-26T06:26:20.137Z,28.97
2022-09-26T06:28:47.303Z,32.07
2022-09-26T06:31:16.845Z,34.93
2022-09-26T06:33:48.722Z,36.17
2022-09-26T06:36:15.476Z,35.10
2022-09-26T06:38:42.488Z,34.20
2022-09-26T06:41:09.170Z,34.43
2022-09-26T06:43:39.753Z,33.40
2022-09-26T06:46:09.537Z,35.40
2022-09-26T06:48:36.450Z,35.80
2022-09-26T06:51:03.153Z,34.87
2022-09-26T06:53:29.972Z,34.57
2022-09-26T06:55:58.500Z,38.67
2022-09-26T06:58:25.499Z,42.07
2022-09-26T07:00:52.286Z,32.80
2022-09-26T07:03:25.338Z,37.93
2022-09-26T07:05:55.546Z,37.23
2022-09-26T07:08:37.390Z,33.73
2022-09-26T07:11:31.236Z,37.03
2022-09-26T07:14:02.108Z,37.50
2022-09-26T07:16:29.306Z,38.73
2022-09-26T07:18:56.286Z,33.07
2022-09-26T07:21:23.145Z,34.90
2022-09-26T07:23:49.846Z,38.07
2022-09-26T07:26:19.598Z,38.13
2022-09-26T07:28:49.665Z,38.50
2022-09-26T07:31:23.631Z,42.87
2022-09-26T07:33:50.559Z,38.23
2022-09-26T07:36:18.600Z,39.67
2022-09-26T07:38:48.617Z,40.33
2022-09-26T07:41:15.980Z,38.87
2022-09-26T07:44:40.889Z,40.23
2022-09-26T07:46:48.374Z,40.27
2022-09-26T07:49:33.763Z,41.97
2022-09-26T07:52:00.882Z,45.10
2022-09-26T07:54:27.666Z,38.67
2022-09-26T07:56:56.601Z,45.70
2022-09-26T07:59:23.336Z,41.57
2022-09-26T08:01:52.336Z,39.63
2022-09-26T08:04:23.622Z,40.77
2022-09-26T08:06:50.336Z,46.00
2022-09-26T08:09:19.357Z,40.83
2022-09-26T08:11:46.144Z,37.67
2022-09-26T08:14:15.384Z,39.60
2022-09-26T08:16:42.230Z,43.30
2022-09-26T08:19:10.754Z,38.40
2022-09-26T08:21:37.959Z,44.23
2022-09-26T08:24:04.693Z,41.53
2022-09-26T08:26:33.776Z,36.70
2022-09-26T08:29:02.645Z,39.77
2022-09-26T08:31:29.395Z,41.10
2022-09-26T08:33:56.232Z,47.90
2022-09-26T08:36:23.053Z,35.13
2022-09-26T08:38:50.312Z,34.63
2022-09-26T08:41:17.291Z,36.30
2022-09-26T08:43:46.998Z,33.67
2022-09-26T08:46:47.763Z,38.73
2022-09-26T08:49:39.824Z,34.93
2022-09-26T08:52:18.500Z,38.80
2022-09-26T08:54:45.447Z,40.50
2022-09-26T08:57:44.914Z,38.63
2022-09-26T09:00:22.712Z,36.87
2022-09-26T09:02:52.223Z,39.77
2022-09-26T09:05:27.357Z,36.50
2022-09-26T09:07:57.195Z,38.00
2022-09-26T09:10:39.306Z,39.77
2022-09-26T09:13:28.435Z,37.53
2022-09-26T09:16:29.332Z,38.00
2022-09-26T09:19:14.506Z,36.90
2022-09-26T09:21:53.501Z,32.17
2022-09-26T09:24:23.344Z,33.87
2022-09-26T09:30:15.756Z,35.87
2022-09-26T09:32:51.941Z,36.10
2022-09-26T09:35:28.677Z,36.37
2022-09-26T09:37:55.393Z,44.23
2022-09-26T09:40:24.754Z,35.07
2022-09-26T09:42:55.786Z,32.80
2022-09-26T09:45:25.077Z,33.33
2022-09-26T09:47:51.798Z,29.53
2022-09-26T09:50:44.549Z,29.60
2022-09-26T09:53:19.715Z,32.40
2022-09-26T09:55:55.599Z,28.63
2022-09-26T09:58:42.376Z,34.30
2022-09-26T10:01:19.933Z,31.10
2022-09-26T10:04:04.734Z,32.80
2022-09-26T10:06:45.294Z,33.47
2022-09-26T10:09:35.632Z,31.80
2022-09-26T10:12:17.274Z,33.70
2022-09-26T10:15:02.373Z,27.97
2022-09-26T10:17:31.322Z,30.87
2022-09-26T10:19:58.077Z,27.90
2022-09-26T10:22:37.921Z,34.83
2022-09-26T10:25:24.148Z,27.10
2022-09-26T10:27:55.336Z,26.70
2022-09-26T10:30:26.930Z,25.00
2022-09-26T10:33:00.770Z,24.00
2022-09-26T10:35:46.398Z,24.83
2022-09-26T10:38:18.876Z,21.73
2022-09-26T10:40:55.286Z,17.37
2022-09-26T10:43:32.258Z,19.57
2022-09-26T10:46:16.129Z,17.60
2022-09-26T10:48:48.168Z,20.83
2022-09-26T10:51:37.796Z,17.70
2022-09-26T10:54:22.236Z,16.77
2022-09-26T10:56:50.912Z,17.97
2022-09-26T10:59:18.336Z,16.80
2022-09-26T11:01:48.260Z,19.30
2022-09-26T11:04:38.314Z,16.93
2022-09-26T11:07:08.794Z,15.67
2022-09-26T11:09:38.511Z,17.80
2022-09-26T11:12:28.015Z,12.67
2022-09-26T11:15:05.621Z,20.17
2022-09-26T11:17:47.392Z,17.27
2022-09-26T11:20:40.615Z,14.83
2022-09-26T11:23:52.254Z,14.03
2022-09-26T11:26:43.627Z,15.60
2022-09-26T11:29:24.972Z,12.37
2022-09-26T11:31:58.228Z,12.27
2022-09-26T11:34:29.235Z,12.10
2022-09-26T11:37:19.046Z,14.87
2022-09-26T11:40:10.079Z,15.40
2022-09-26T11:42:54.990Z,13.60
2022-09-26T11:46:02.941Z,10.40
2022-09-26T11:48:54.595Z,13.63
2022-09-26T11:51:47.087Z,16.27
2022-09-26T11:54:50.955Z,12.25
2022-09-26T11:57:43.983Z,14.05
2022-09-26T12:00:27.820Z,12.48
2022-09-26T12:03:07.551Z,18.25
2022-09-26T12:05:49.515Z,14.02
2022-09-26T12:08:36.733Z,11.85
2022-09-26T12:11:20.007Z,11.63
2022-09-26T12:14:17.891Z,16.20
2022-09-26T12:16:55.975Z,13.30
2022-09-26T12:20:06.610Z,10.60
2022-09-26T12:22:36.308Z,16.87
2022-09-26T12:25:27.516Z,13.80
2022-09-26T12:28:08.563Z,14.50
2022-09-26T12:30:40.544Z,13.67
2022-09-26T12:33:15.664Z,12.70
2022-09-26T12:35:53.877Z,14.17
2022-09-26T12:38:56.518Z,18.93
2022-09-26T12:41:56.707Z,14.87
2022-09-26T12:44:51.204Z,13.73
2022-09-26T12:47:39.421Z,13.60
2022-09-26T12:50:31.084Z,13.93
2022-09-26T12:53:04.369Z,14.60
2022-09-26T12:55:51.500Z,17.40
2022-09-26T12:58:36.282Z,14.13
2022-09-26T13:01:34.146Z,16.80
2022-09-26T13:04:33.228Z,13.20
2022-09-26T13:07:21.112Z,11.43
2022-09-26T13:10:00.038Z,11.00
2022-09-26T13:12:42.555Z,11.47
2022-09-26T13:15:27.047Z,10.90
2022-09-26T13:17:59.202Z,11.03
2022-09-26T13:20:30.979Z,10.70
2022-09-26T13:23:27.376Z,10.60
2022-09-26T13:26:02.613Z,10.53
2022-09-26T13:28:34.190Z,11.23
2022-09-26T13:31:09.776Z,11.33
2022-09-26T13:33:40.775Z,11.27
2022-09-26T13:36:10.023Z,12.63
2022-09-26T13:38:43.294Z,9.20
2022-09-26T13:41:26.718Z,10.67
2022-09-26T13:44:12.345Z,11.23
2022-09-26T13:47:05.977Z,9.17
2022-09-26T13:49:44.723Z,8.57
2022-09-26T13:52:36.133Z,8.53
2022-09-26T13:55:14.833Z,13.00
2022-09-26T13:58:09.266Z,11.80
2022-09-26T14:00:40.515Z,9.67
2022-09-26T14:03:10.254Z,9.07
2022-09-26T14:05:46.709Z,13.87
2022-09-26T14:08:44.754Z,7.47
2022-09-26T14:11:30.603Z,8.60
2022-09-26T14:14:21.547Z,9.23
2022-09-26T14:16:49.403Z,8.87
2022-09-26T14:19:16.524Z,10.40
2022-09-26T14:22:05.402Z,8.37
2022-09-26T14:24:39.449Z,8.73
2022-09-26T14:27:12.414Z,10.33
2022-09-26T14:29:39.088Z,17.50
2022-09-26T14:32:11.015Z,12.47
2022-09-26T14:34:43.981Z,11.90
2022-09-26T14:37:25.701Z,13.07
2022-09-26T14:39:52.415Z,12.63
2022-09-26T14:42:24.122Z,11.97
2022-09-26T14:44:59.475Z,8.90
2022-09-26T14:47:27.524Z,10.83
2022-09-26T14:50:05.631Z,12.07
2022-09-26T14:52:32.828Z,11.63
2022-09-26T14:55:01.295Z,14.07
2022-09-26T14:57:31.857Z,11.93
2022-09-26T15:00:01.887Z,15.97
2022-09-26T15:02:39.145Z,11.37
2022-09-26T15:05:12.126Z,9.80
2022-09-26T15:08:00.341Z,12.60
2022-09-26T15:10:47.334Z,12.27
2022-09-26T15:13:22.935Z,12.67
2022-09-26T15:16:08.577Z,12.53
2022-09-26T15:18:45.515Z,13.17
2022-09-26T15:21:33.210Z,16.43
2022-09-26T15:24:03.297Z,15.33
2022-09-26T15:26:36.875Z,13.53
2022-09-26T15:29:06.369Z,11.83
2022-09-26T15:31:45.625Z,13.30
2022-09-26T15:34:21.739Z,11.60
2022-09-26T15:36:55.848Z,10.87
2022-09-26T15:39:33.993Z,13.57
2022-09-26T15:42:24.259Z,11.73
2022-09-26T15:45:00.703Z,13.63
2022-09-26T15:47:30.453Z,11.43
2022-09-26T15:50:23.395Z,14.53
2022-09-26T15:52:55.245Z,15.53
2022-09-26T15:55:28.747Z,14.23
2022-09-26T15:57:58.843Z,17.37
2022-09-26T16:00:25.693Z,15.10
2022-09-26T16:02:52.536Z,12.87
2022-09-26T16:05:19.349Z,14.60
2022-09-26T16:07:50.165Z,14.97
2022-09-26T16:10:24.131Z,13.80
2022-09-26T16:12:50.901Z,14.27
2022-09-26T16:15:19.321Z,13.50
2022-09-26T16:17:57.132Z,15.63
2022-09-26T16:20:28.076Z,13.90
2022-09-26T16:23:04.933Z,14.57
2022-09-26T16:25:34.445Z,15.63
2022-09-26T16:28:10.518Z,13.50
2022-09-26T16:30:45.733Z,15.33
2022-09-26T16:33:33.859Z,14.43
2022-09-26T16:36:25.269Z,12.47
2022-09-26T16:39:02.521Z,13.20
2022-09-26T16:44:35.709Z,14.30
2022-09-26T16:47:05.598Z,13.10
2022-09-26T16:49:46.502Z,14.50
2022-09-26T16:52:28.090Z,15.13
2022-09-26T16:55:00.954Z,14.57
2022-09-26T16:57:30.235Z,14.77
2022-09-26T17:00:37.617Z,17.70
2022-09-26T17:03:13.149Z,13.93
2022-09-26T17:05:41.515Z,14.87
2022-09-26T17:08:11.905Z,12.97
2022-09-26T17:10:38.911Z,48.67
2022-09-26T17:13:05.874Z,16.33
2022-09-26T17:15:34.516Z,16.67
2022-09-26T17:18:01.940Z,14.57
2022-09-26T17:20:31.138Z,13.37
2022-09-26T17:22:57.855Z,11.10
2022-09-26T17:25:25.294Z,12.90
2022-09-26T17:27:57.675Z,13.97
2022-09-26T17:30:29.263Z,16.00
2022-09-26T17:32:56.076Z,13.07
2022-09-26T17:35:26.290Z,12.83
2022-09-26T17:37:53.825Z,14.20
2022-09-26T17:40:24.173Z,20.23
2022-09-26T17:42:57.774Z,14.10
2022-09-26T17:45:32.396Z,12.80
2022-09-26T17:48:04.465Z,11.60
2022-09-26T17:50:34.140Z,11.33
2022-09-26T17:53:01.642Z,16.40
2022-09-26T17:55:29.094Z,9.83
2022-09-26T17:57:58.328Z,10.87
2022-09-26T18:00:25.329Z,12.13
2022-09-26T18:03:00.433Z,13.03
2022-09-26T18:05:30.579Z,12.40
2022-09-26T18:08:01.748Z,11.27
2022-09-26T18:10:33.870Z,13.53
2022-09-26T18:13:03.199Z,16.40
2022-09-26T18:15:30.042Z,11.77
2022-09-26T18:17:57.120Z,13.50
2022-09-26T18:20:33.159Z,14.97
2022-09-26T18:23:03.557Z,13.03
2022-09-26T18:25:32.516Z,12.33
2022-09-26T18:28:01.358Z,17.20
2022-09-26T18:30:30.305Z,12.87
2022-09-26T18:32:57.249Z,12.57
2022-09-26T18:35:27.787Z,9.40
2022-09-26T18:37:59.740Z,9.90
2022-09-26T18:40:27.904Z,9.43
2022-09-26T18:42:55.025Z,8.83
2022-09-26T18:45:30.499Z,8.57
2022-09-26T18:47:57.265Z,7.23
2022-09-26T18:50:30.923Z,5.93
2022-09-26T18:53:04.951Z,5.00
2022-09-26T18:55:50.101Z,6.80
2022-09-26T18:58:29.836Z,5.47
2022-09-26T19:01:08.719Z,6.30
2022-09-26T19:03:39.928Z,5.13
2022-09-26T19:06:19.583Z,7.73
2022-09-26T19:08:47.308Z,6.53
2022-09-26T19:11:18.277Z,4.53
2022-09-26T19:13:49.449Z,5.77
2022-09-26T19:16:20.892Z,5.83
2022-09-26T19:18:50.246Z,6.43
2022-09-26T19:21:38.476Z,3.70
2022-09-26T19:24:23.668Z,4.97
2022-09-26T19:26:59.380Z,23.50
2022-09-26T19:29:36.980Z,6.13
2022-09-26T19:32:03.748Z,5.53
2022-09-26T19:34:33.145Z,4.37
2022-09-26T19:37:01.501Z,8.73
2022-09-26T19:39:28.378Z,4.07
2022-09-26T19:41:57.368Z,9.97
2022-09-26T19:44:26.350Z,10.00
2022-09-26T19:46:59.811Z,6.87
2022-09-26T19:49:28.698Z,6.70
2022-09-26T19:51:55.611Z,8.67
2022-09-26T19:54:22.313Z,7.33
2022-09-26T19:56:51.538Z,8.20
2022-09-26T19:59:20.627Z,8.03
2022-09-26T20:01:50.037Z,18.63
2022-09-26T20:04:18.653Z,15.47
2022-09-26T20:06:48.058Z,10.87
2022-09-26T20:09:16.720Z,9.97
2022-09-26T20:11:43.465Z,9.83
2022-09-26T20:14:28.139Z,9.37
2022-09-26T20:17:04.634Z,8.17
2022-09-26T20:19:39.119Z,11.83
2022-09-26T20:22:14.049Z,11.17
2022-09-26T20:24:40.850Z,11.87
2022-09-26T20:27:08.076Z,12.33
2022-09-26T20:29:54.958Z,9.20
2022-09-26T20:32:26.625Z,11.80
2022-09-26T20:34:53.472Z,11.83
2022-09-26T20:37:23.524Z,10.50
2022-09-26T20:39:50.209Z,10.57
2022-09-26T20:42:17.740Z,10.13
2022-09-26T20:44:45.242Z,10.80
2022-09-26T20:47:14.687Z,9.07
2022-09-26T20:49:43.944Z,12.17
2022-09-26T20:52:24.588Z,10.93
2022-09-26T20:54:52.355Z,11.80
2022-09-26T20:57:19.840Z,8.47
2022-09-26T20:59:46.951Z,11.23
2022-09-26T21:02:52.678Z,9.30
2022-09-26T21:05:24.724Z,9.67
2022-09-26T21:07:54.785Z,9.67
2022-09-26T21:10:29.154Z,11.27
2022-09-26T21:13:01.287Z,8.33
2022-09-26T21:15:32.149Z,8.17
2022-09-26T21:17:58.940Z,10.07
2022-09-26T21:20:26.500Z,12.00
2022-09-26T21:22:56.316Z,9.83
2022-09-26T21:25:24.424Z,10.80
2022-09-26T21:27:53.873Z,11.47
2022-09-26T21:30:23.146Z,11.53
2022-09-26T21:32:55.024Z,11.37
2022-09-26T21:35:23.982Z,11.20
2022-09-26T21:37:53.993Z,11.53
2022-09-26T21:40:20.990Z,9.53
2022-09-26T21:42:49.565Z,9.70
2022-09-26T21:45:20.486Z,9.40
2022-09-26T21:47:49.953Z,11.93
2022-09-26T21:50:21.467Z,9.50
2022-09-26T21:52:55.045Z,12.67
2022-09-26T21:55:26.787Z,10.10
2022-09-26T21:57:56.092Z,10.33
2022-09-26T22:00:22.895Z,10.73
2022-09-26T22:02:57.274Z,8.80
2022-09-26T22:05:24.101Z,10.33
2022-09-26T22:07:51.275Z,10.97
2022-09-26T22:10:20.996Z,12.70
2022-09-26T22:12:50.079Z,12.17
2022-09-26T22:15:17.040Z,10.97
2022-09-26T22:44:57.061Z,11.43
2022-09-26T22:47:23.763Z,10.83
2022-09-26T22:49:50.466Z,11.20
2022-09-26T22:52:17.201Z,11.67
2022-09-26T22:54:46.117Z,12.33
2022-09-26T22:57:12.861Z,11.83
2022-09-26T22:59:39.658Z,13.10
2022-09-26T23:02:06.472Z,12.40
2022-09-26T23:04:48.614Z,12.70
2022-09-26T23:07:19.261Z,13.63
2022-09-26T23:09:46.019Z,13.73
2022-09-26T23:12:17.158Z,12.57
2022-09-26T23:14:43.919Z,11.57
2022-09-26T23:17:10.718Z,15.57
2022-09-26T23:19:40.149Z,14.30
2022-09-26T23:22:09.375Z,15.77
2022-09-26T23:24:38.568Z,15.80
2022-09-26T23:27:05.313Z,15.93
2022-09-26T23:29:32.470Z,15.43
2022-09-26T23:31:59.228Z,18.00
2022-09-26T23:34:25.983Z,19.47
2022-09-26T23:36:54.961Z,17.77
2022-09-26T23:39:21.679Z,20.50
2022-09-26T23:41:48.408Z,19.57
2022-09-26T23:44:15.107Z,18.83
2022-09-26T23:46:42.062Z,18.37
2022-09-26T23:49:08.861Z,19.53
2022-09-26T23:51:35.573Z,20.87
2022-09-26T23:54:04.598Z,21.03
2022-09-26T23:56:33.773Z,25.53
2022-09-26T23:59:00.485Z,21.90
